Time;durP1;ratioP1;P1;durP2;ratioP2;P2;SDS_P1;SDS_P2;PMS_P1;PMS_P2;Temp;Humidity;BMP_temperature;BMP_pressure;BME280_temperature;BME280_humidity;BME280_pressure;Samples;Min_cycle;Max_cycle;Signal;HPM_P1;HPM_P2
2021/08/09 00:00:04;;;;;;;6.07;2.00;;;;;;;18.00;52.06;96871.88;5065949;28;20206;-66
2021/08/09 00:02:29;;;;;;;2.50;1.70;;;;;;;18.04;51.82;96864.31;5057623;28;20239;-66
2021/08/09 00:04:55;;;;;;;7.60;1.73;;;;;;;17.96;52.22;96865.31;5072360;28;20421;-67
2021/08/09 00:07:20;;;;;;;2.93;1.70;;;;;;;17.87;52.72;96862.09;5073433;28;20186;-67
2021/08/09 00:09:46;;;;;;;2.53;1.70;;;;;;;17.98;52.26;96868.63;5073584;28;20245;-66
2021/08/09 00:12:11;;;;;;;2.57;1.60;;;;;;;17.96;52.20;96858.22;5073456;28;20223;-66
2021/08/09 00:14:39;;;;;;;5.97;1.53;;;;;;;17.91;52.37;96855.34;5073317;28;20193;-65
2021/08/09 00:17:05;;;;;;;2.03;1.43;;;;;;;17.93;52.37;96861.25;5073530;28;20178;-66
2021/08/09 00:19:31;;;;;;;3.47;1.50;;;;;;;18.00;52.29;96857.81;5060397;28;20490;-67
2021/08/09 00:21:56;;;;;;;3.33;1.70;;;;;;;17.75;52.75;96853.97;5072183;28;20896;-67
2021/08/09 00:24:22;;;;;;;4.07;1.67;;;;;;;17.79;52.95;96859.66;5073144;28;20186;-67
2021/08/09 00:26:47;;;;;;;4.60;1.70;;;;;;;17.88;52.70;96861.09;5069483;28;20190;-67
2021/08/09 00:29:13;;;;;;;1.43;1.33;;;;;;;17.87;52.77;96855.97;5073475;28;20696;-67
2021/08/09 00:31:38;;;;;;;2.33;1.50;;;;;;;17.83;52.68;96863.53;5068508;28;20564;-68
2021/08/09 00:34:04;;;;;;;2.97;1.60;;;;;;;17.84;52.84;96859.88;5073043;28;20244;-67
2021/08/09 00:36:29;;;;;;;3.53;1.30;;;;;;;17.82;52.79;96851.31;5073306;28;20178;-67
2021/08/09 00:38:55;;;;;;;3.50;1.70;;;;;;;17.78;52.86;96855.38;5073268;28;20226;-67
2021/08/09 00:41:20;;;;;;;4.43;1.97;;;;;;;17.76;53.03;96860.09;5073577;28;20265;-67
2021/08/09 00:43:46;;;;;;;3.90;1.50;;;;;;;17.71;53.20;96865.97;5073624;28;20178;-67
2021/08/09 00:46:12;;;;;;;2.67;1.67;;;;;;;17.58;53.76;96866.84;5073179;28;20186;-67
2021/08/09 00:48:37;;;;;;;6.10;1.63;;;;;;;17.37;54.39;96867.06;5071989;28;20725;-67
2021/08/09 00:51:03;;;;;;;2.30;1.70;;;;;;;17.16;54.98;96871.50;5072747;28;20212;-68
2021/08/09 00:53:29;;;;;;;4.23;1.60;;;;;;;17.26;54.72;96868.47;5073602;28;20182;-67
2021/08/09 00:55:55;;;;;;;3.33;1.70;;;;;;;17.37;54.45;96865.19;5072486;28;20494;-67
2021/08/09 00:58:20;;;;;;;3.53;1.50;;;;;;;17.38;54.29;96863.38;5073223;28;20191;-67
2021/08/09 01:00:47;;;;;;;2.93;1.50;;;;;;;17.24;54.99;96863.38;5072951;28;20198;-67
2021/08/09 01:03:12;;;;;;;3.37;1.53;;;;;;;17.32;54.40;96863.16;5048024;28;20234;-67
2021/08/09 01:05:38;;;;;;;2.63;1.60;;;;;;;17.18;54.91;96866.81;5052088;28;20414;-67
2021/08/09 01:08:10;;;;;;;4.53;1.77;;;;;;;17.27;54.85;96873.53;5060067;28;20186;-68
2021/08/09 01:10:42;;;;;;;2.33;1.87;;;;;;;17.09;55.32;96868.84;5064632;28;20296;-67
2021/08/09 01:13:34;;;;;;;3.77;1.83;;;;;;;16.95;55.84;96867.22;5071281;28;20927;-68
2021/08/09 01:16:04;;;;;;;6.20;2.37;;;;;;;16.87;56.19;96870.84;5071026;28;20418;-68
2021/08/09 01:18:31;;;;;;;3.43;1.40;;;;;;;16.89;56.06;96869.63;5066937;28;20989;-67
2021/08/09 01:20:58;;;;;;;2.53;1.40;;;;;;;16.70;57.13;96863.25;5067003;28;20425;-67
2021/08/09 01:23:50;;;;;;;3.37;1.87;;;;;;;17.02;55.88;96863.53;5070948;28;20417;-67
2021/08/09 01:26:16;;;;;;;2.03;1.70;;;;;;;16.51;57.48;96864.84;5066814;28;20436;-67
2021/08/09 01:28:42;;;;;;;3.13;1.70;;;;;;;16.80;56.58;96870.81;5042677;28;20438;-66
2021/08/09 01:31:07;;;;;;;3.87;1.70;;;;;;;16.83;56.42;96867.75;5051120;28;20237;-66
2021/08/09 01:33:34;;;;;;;3.93;1.63;;;;;;;16.72;56.62;96873.63;5058053;28;20194;-67
2021/08/09 01:36:00;;;;;;;3.53;2.03;;;;;;;16.62;56.91;96868.75;5072847;28;20247;-67
2021/08/09 01:38:26;;;;;;;5.53;1.90;;;;;;;16.96;55.98;96871.47;5077091;28;20535;-66
2021/08/09 01:40:56;;;;;;;3.20;1.77;;;;;;;17.00;55.69;96870.91;5076033;28;20417;-67
2021/08/09 01:43:24;;;;;;;7.73;1.63;;;;;;;16.76;56.24;96864.28;5073155;28;20424;-69
2021/08/09 01:45:51;;;;;;;3.63;1.70;;;;;;;16.67;56.62;96863.66;5072513;28;20425;-66
2021/08/09 01:48:17;;;;;;;2.90;1.50;;;;;;;16.12;58.27;96853.91;5070941;28;20421;-67
2021/08/09 01:50:42;;;;;;;2.73;1.73;;;;;;;16.57;57.22;96858.75;5056931;28;20468;-67
2021/08/09 01:53:08;;;;;;;5.37;2.03;;;;;;;16.59;56.88;96854.06;5070967;28;20322;-67
2021/08/09 01:55:34;;;;;;;3.03;1.90;;;;;;;16.38;57.91;96862.16;5073077;28;20795;-68
2021/08/09 01:57:59;;;;;;;2.90;1.53;;;;;;;16.49;57.18;96866.06;5073487;28;20265;-69
2021/08/09 02:00:27;;;;;;;4.27;2.10;;;;;;;16.71;56.67;96867.53;5074460;28;20251;-68
2021/08/09 02:02:54;;;;;;;3.50;1.60;;;;;;;16.87;55.96;96868.19;5074282;28;20287;-67
2021/08/09 02:05:19;;;;;;;3.00;1.57;;;;;;;16.81;56.11;96871.63;5074320;28;20835;-67
2021/08/09 02:07:46;;;;;;;4.70;1.60;;;;;;;16.78;56.38;96872.03;5066236;28;20615;-67
2021/08/09 02:10:15;;;;;;;1.97;1.77;;;;;;;16.80;56.47;96872.63;5070613;28;20689;-67
2021/08/09 02:12:44;;;;;;;3.47;1.80;;;;;;;16.83;56.26;96875.69;5070758;28;20428;-66
2021/08/09 02:15:10;;;;;;;3.50;1.50;;;;;;;16.74;56.31;96877.75;5070306;28;20916;-67
2021/08/09 02:17:41;;;;;;;2.63;1.60;;;;;;;16.67;56.93;96882.19;5058491;28;20436;-68
2021/08/09 02:20:12;;;;;;;2.70;1.57;;;;;;;16.78;56.67;96883.44;5045988;28;20222;-68
2021/08/09 02:22:42;;;;;;;4.90;1.93;;;;;;;16.77;56.57;96878.31;5072425;28;20421;-70
2021/08/09 02:25:15;;;;;;;1.90;1.50;;;;;;;16.78;56.38;96883.44;5075524;28;20424;-68
2021/08/09 02:27:47;;;;;;;2.03;1.60;;;;;;;16.65;57.08;96881.56;5074771;28;20920;-67
2021/08/09 02:30:16;;;;;;;2.33;1.57;;;;;;;16.69;56.83;96885.44;5070984;28;20461;-67
2021/08/09 02:32:42;;;;;;;2.53;1.70;;;;;;;16.68;56.87;96886.44;5071485;28;20520;-66
2021/08/09 02:35:09;;;;;;;6.10;1.97;;;;;;;16.69;56.71;96890.72;5070730;28;20500;-68
2021/08/09 02:37:35;;;;;;;1.90;1.80;;;;;;;16.71;56.56;96888.72;5069551;28;20437;-68
2021/08/09 02:40:01;;;;;;;7.03;1.73;;;;;;;16.71;56.58;96888.72;5063866;28;20444;-66
2021/08/09 02:42:27;;;;;;;2.70;1.50;;;;;;;16.66;56.93;96887.69;5043381;28;20921;-67
2021/08/09 02:44:53;;;;;;;4.17;1.60;;;;;;;16.65;56.92;96889.50;5047608;28;20468;-67
2021/08/09 02:47:19;;;;;;;2.70;1.93;;;;;;;16.61;57.08;96890.09;5060318;28;20329;-67
2021/08/09 02:49:49;;;;;;;2.60;1.70;;;;;;;16.54;57.30;96887.41;5058253;28;20617;-67
2021/08/09 02:52:16;;;;;;;2.87;1.50;;;;;;;16.58;56.98;96888.66;5069874;28;20716;-68
2021/08/09 02:54:45;;;;;;;3.47;1.90;;;;;;;16.52;57.13;96878.88;5075056;28;20493;-67
2021/08/09 02:57:12;;;;;;;3.17;1.80;;;;;;;16.46;57.70;96885.75;5070439;28;20429;-66
2021/08/09 02:59:37;;;;;;;6.50;1.93;;;;;;;16.37;58.12;96893.06;5077549;28;20479;-67
2021/08/09 03:02:05;;;;;;;2.93;1.83;;;;;;;16.36;58.02;96894.09;5077356;28;20515;-68
2021/08/09 03:04:31;;;;;;;3.00;2.00;;;;;;;16.31;57.86;96896.50;5076945;28;20265;-67
2021/08/09 03:06:57;;;;;;;3.33;1.77;;;;;;;16.26;58.06;96891.78;5076421;28;20963;-67
2021/08/09 03:09:23;;;;;;;3.00;2.10;;;;;;;16.21;58.41;96894.19;5075859;28;20209;-68
2021/08/09 03:11:48;;;;;;;3.00;1.90;;;;;;;16.15;58.69;96902.09;5077674;28;20815;-66
2021/08/09 03:14:27;;;;;;;5.00;1.93;;;;;;;16.09;58.95;96908.97;5076991;28;20248;-66
2021/08/09 03:16:53;;;;;;;2.60;1.83;;;;;;;16.06;58.90;96902.25;5077241;28;20182;-67
2021/08/09 03:19:19;;;;;;;6.07;1.90;;;;;;;16.05;58.96;96905.91;5063895;28;20450;-68
2021/08/09 03:21:52;;;;;;;2.03;1.87;;;;;;;16.03;59.14;96892.06;5077321;28;20988;-67
2021/08/09 03:24:19;;;;;;;3.83;1.83;;;;;;;16.00;59.09;96903.06;5076842;28;20209;-67
2021/08/09 03:26:44;;;;;;;4.03;1.90;;;;;;;15.95;59.16;96900.16;5074717;28;20424;-67
2021/08/09 03:29:10;;;;;;;2.70;2.10;;;;;;;15.92;59.44;96895.25;5060188;28;20514;-66
2021/08/09 03:31:36;;;;;;;6.93;2.00;;;;;;;15.90;59.63;96892.81;5076940;28;20261;-66
2021/08/09 03:34:01;;;;;;;2.67;2.30;;;;;;;15.90;59.68;96890.19;5077288;28;20657;-67
2021/08/09 03:36:27;;;;;;;2.33;1.80;;;;;;;15.88;59.55;96892.19;5055611;28;20581;-66
2021/08/09 03:38:52;;;;;;;2.70;2.10;;;;;;;15.64;61.04;96886.31;5069391;28;20634;-67
2021/08/09 03:41:18;;;;;;;2.90;2.20;;;;;;;15.68;61.12;96881.47;5056437;28;20583;-67
2021/08/09 03:43:43;;;;;;;3.73;2.07;;;;;;;15.75;61.00;96884.16;5050774;28;20278;-67
2021/08/09 03:46:10;;;;;;;2.47;2.20;;;;;;;15.80;60.61;96881.75;5057785;28;20311;-68
2021/08/09 03:48:35;;;;;;;3.90;2.30;;;;;;;15.86;60.64;96888.13;5064229;28;20232;-68
2021/08/09 03:51:01;;;;;;;3.73;2.07;;;;;;;15.91;60.28;96877.75;5055499;28;20461;-67
2021/08/09 03:53:26;;;;;;;5.70;2.17;;;;;;;15.94;60.08;96872.91;5056581;28;20286;-68
2021/08/09 03:55:52;;;;;;;2.33;1.93;;;;;;;15.94;59.81;96880.84;5056738;28;20193;-67
2021/08/09 03:58:17;;;;;;;2.00;1.83;;;;;;;15.91;59.79;96872.47;5067476;28;20197;-66
2021/08/09 04:00:43;;;;;;;3.10;1.90;;;;;;;15.90;59.64;96870.84;5068604;28;20253;-67
2021/08/09 04:03:09;;;;;;;3.40;2.40;;;;;;;15.88;60.00;96870.25;5058126;28;20336;-67
2021/08/09 04:05:34;;;;;;;4.30;2.13;;;;;;;15.84;60.17;96876.88;5053399;28;20198;-67
2021/08/09 04:08:00;;;;;;;3.73;2.00;;;;;;;15.85;60.51;96884.66;5052179;28;20658;-67
2021/08/09 04:10:25;;;;;;;3.27;2.33;;;;;;;15.85;60.59;96884.66;5053200;28;20242;-65
2021/08/09 04:12:51;;;;;;;3.30;2.20;;;;;;;15.84;60.63;96884.81;5054058;28;20179;-67
2021/08/09 04:15:17;;;;;;;3.60;1.93;;;;;;;15.83;60.64;96889.28;5053172;28;20202;-65
2021/08/09 04:17:44;;;;;;;3.40;2.20;;;;;;;15.80;60.60;96893.13;5053593;28;20262;-68
2021/08/09 04:20:10;;;;;;;4.43;2.23;;;;;;;15.84;60.94;96884.81;5044920;28;20210;-68
2021/08/09 04:22:35;;;;;;;5.07;2.47;;;;;;;15.82;60.72;96883.19;5053408;28;20467;-68
2021/08/09 04:25:02;;;;;;;2.97;2.33;;;;;;;15.80;61.04;96885.19;5053161;28;20430;-67
2021/08/09 04:27:28;;;;;;;4.77;2.27;;;;;;;15.81;61.00;96897.41;5046566;28;20217;-67
2021/08/09 04:29:53;;;;;;;2.07;1.87;;;;;;;15.84;61.13;96892.75;5054431;28;20462;-67
2021/08/09 04:32:19;;;;;;;9.70;2.27;;;;;;;15.67;61.77;96893.03;5060890;28;20187;-67
2021/08/09 04:34:45;;;;;;;5.00;2.00;;;;;;;15.66;61.62;96899.31;5052941;28;20190;-67
2021/08/09 04:37:11;;;;;;;5.63;2.03;;;;;;;15.68;61.42;96894.66;5054109;28;20430;-67
2021/08/09 04:39:37;;;;;;;4.60;2.33;;;;;;;15.70;61.26;96891.81;5052986;28;20229;-67
2021/08/09 04:42:03;;;;;;;6.93;2.67;;;;;;;15.77;61.11;96890.84;5052120;28;20429;-67
2021/08/09 04:44:28;;;;;;;3.10;2.03;;;;;;;15.87;60.77;96892.41;5053588;28;20183;-67
2021/08/09 04:46:55;;;;;;;3.10;2.40;;;;;;;15.87;60.83;96884.47;5061423;28;20654;-67
2021/08/09 04:49:20;;;;;;;5.50;2.83;;;;;;;15.88;60.69;96889.56;5034271;28;20203;-67
2021/08/09 04:51:46;;;;;;;4.77;2.80;;;;;;;15.89;60.94;96893.81;5052962;28;20984;-66
2021/08/09 04:54:11;;;;;;;3.23;2.60;;;;;;;15.96;60.64;96899.16;5055078;28;20719;-67
2021/08/09 04:56:37;;;;;;;4.70;2.40;;;;;;;16.04;60.42;96901.63;5053126;28;20269;-67
2021/08/09 04:59:03;;;;;;;4.13;2.67;;;;;;;16.05;60.48;96884.75;5052392;28;20225;-67
2021/08/09 05:01:28;;;;;;;6.07;3.00;;;;;;;15.96;60.94;96878.81;5052655;28;20193;-67
2021/08/09 05:03:54;;;;;;;5.50;2.70;;;;;;;16.10;60.31;96885.00;5052879;28;20203;-68
2021/08/09 05:06:19;;;;;;;5.90;2.77;;;;;;;16.18;60.15;96885.84;5054091;28;20662;-68
2021/08/09 05:08:45;;;;;;;3.80;2.53;;;;;;;16.19;60.15;96896.22;5052619;28;20198;-67
2021/08/09 05:11:12;;;;;;;3.87;2.63;;;;;;;16.12;60.19;96888.28;5060461;28;20253;-67
2021/08/09 05:13:37;;;;;;;2.97;2.40;;;;;;;16.05;60.49;96890.06;5052735;28;20194;-67
2021/08/09 05:16:04;;;;;;;7.73;2.57;;;;;;;16.24;59.92;96899.09;5052555;28;20430;-66
2021/08/09 05:18:29;;;;;;;4.60;2.20;;;;;;;16.35;59.76;96899.56;5049039;28;20184;-67
2021/08/09 05:20:55;;;;;;;8.10;2.63;;;;;;;16.49;59.43;96897.78;5048134;28;20592;-67
2021/08/09 05:23:20;;;;;;;3.80;2.57;;;;;;;16.52;59.13;96900.84;5051750;28;20189;-67
2021/08/09 05:25:46;;;;;;;6.33;2.60;;;;;;;16.61;58.85;96901.50;5052539;28;20266;-66
2021/08/09 05:28:11;;;;;;;4.37;2.50;;;;;;;16.65;59.00;96905.38;5053432;28;20187;-66
2021/08/09 05:30:37;;;;;;;3.40;2.00;;;;;;;16.72;58.83;96903.56;5059194;28;20590;-67
2021/08/09 05:33:04;;;;;;;3.93;1.83;;;;;;;16.74;58.27;96895.44;5052173;28;20179;-66
2021/08/09 05:35:29;;;;;;;5.67;2.20;;;;;;;16.86;58.39;96895.69;5059101;28;20183;-67
2021/08/09 05:37:55;;;;;;;2.83;2.00;;;;;;;16.92;57.85;96894.84;5048957;28;20893;-68
2021/08/09 05:40:21;;;;;;;3.03;1.90;;;;;;;16.93;57.66;96895.69;5051768;28;20289;-68
2021/08/09 05:42:49;;;;;;;3.30;1.97;;;;;;;17.04;57.65;96905.72;5048196;28;20946;-67
2021/08/09 05:45:16;;;;;;;2.17;1.80;;;;;;;17.18;57.25;96906.53;5052319;28;20442;-69
2021/08/09 05:47:42;;;;;;;4.00;1.90;;;;;;;17.45;56.61;96903.91;5072510;28;20421;-67
2021/08/09 05:50:08;;;;;;;3.10;1.70;;;;;;;17.87;55.58;96911.63;5071509;28;20935;-67
2021/08/09 05:52:34;;;;;;;3.27;1.93;;;;;;;18.45;54.14;96912.78;5072000;28;20232;-67
2021/08/09 05:55:03;;;;;;;3.70;2.10;;;;;;;19.09;52.79;96902.28;5071885;28;20453;-68
2021/08/09 05:57:29;;;;;;;2.93;1.80;;;;;;;19.69;50.70;96901.00;5072406;28;20275;-69
2021/08/09 05:59:55;;;;;;;4.20;1.70;;;;;;;19.71;49.63;96906.91;5058237;28;20449;-67
2021/08/09 06:02:20;;;;;;;2.73;1.50;;;;;;;19.60;49.91;96909.22;5074621;28;20221;-67
2021/08/09 06:04:46;;;;;;;2.27;1.63;;;;;;;19.19;50.80;96908.72;5072397;28;20183;-68
2021/08/09 06:07:15;;;;;;;2.20;1.67;;;;;;;19.33;50.62;96924.56;5067699;28;20190;-69
2021/08/09 06:09:41;;;;;;;3.33;1.83;;;;;;;19.42;50.38;96920.63;5071943;28;20245;-67
2021/08/09 06:12:08;;;;;;;3.33;1.57;;;;;;;19.56;50.17;96918.69;5071536;28;20440;-67
2021/08/09 06:14:33;;;;;;;2.90;1.97;;;;;;;19.64;49.59;96914.94;5070067;28;20512;-67
2021/08/09 06:16:59;;;;;;;3.17;1.73;;;;;;;20.00;49.49;96902.78;5071697;28;20542;-66
2021/08/09 06:19:25;;;;;;;3.23;1.80;;;;;;;20.23;49.22;96909.31;5063823;28;20255;-69
2021/08/09 06:21:50;;;;;;;5.10;1.87;;;;;;;20.33;48.57;96900.81;5070198;28;20182;-69
2021/08/09 06:24:16;;;;;;;3.00;1.77;;;;;;;20.34;48.46;96899.78;5069119;28;20871;-68
2021/08/09 06:26:41;;;;;;;4.20;1.60;;;;;;;20.54;48.09;96896.88;5071636;28;20262;-68
2021/08/09 06:29:07;;;;;;;6.60;1.87;;;;;;;20.47;47.88;96901.47;5071124;28;20738;-69
2021/08/09 06:31:32;;;;;;;5.43;2.00;;;;;;;20.30;48.74;96896.72;5071323;28;20221;-68
2021/08/09 06:33:58;;;;;;;2.27;1.40;;;;;;;20.51;47.86;96897.31;5059435;28;20191;-68
2021/08/09 06:36:23;;;;;;;6.63;2.53;;;;;;;20.30;48.19;96890.59;5054773;28;20192;-68
2021/08/09 06:38:49;;;;;;;3.13;1.60;;;;;;;20.53;47.38;96890.72;5069555;28;20214;-69
2021/08/09 06:41:20;;;;;;;2.80;1.97;;;;;;;20.18;48.50;96895.84;5050073;28;20265;-68
2021/08/09 06:43:45;;;;;;;6.13;1.70;;;;;;;20.42;48.45;96896.81;5044051;28;20198;-67
2021/08/09 06:46:12;;;;;;;3.03;1.43;;;;;;;20.79;47.96;96893.31;5071728;28;20515;-68
2021/08/09 06:48:38;;;;;;;4.33;1.63;;;;;;;20.80;47.69;96889.59;5069056;28;20266;-71
2021/08/09 06:51:04;;;;;;;3.30;2.00;;;;;;;20.55;47.56;96898.47;5071669;28;20479;-69
2021/08/09 06:53:29;;;;;;;3.10;1.33;;;;;;;20.67;46.97;96898.56;5070829;28;20323;-69
2021/08/09 06:55:55;;;;;;;3.80;1.50;;;;;;;20.51;47.83;96886.69;5071574;28;20183;-70
2021/08/09 06:58:20;;;;;;;3.83;1.90;;;;;;;20.72;47.31;96894.19;5066360;28;20188;-69
2021/08/09 07:00:46;;;;;;;15.73;1.50;;;;;;;20.79;47.27;96888.00;5059960;28;20194;-68
2021/08/09 07:03:12;;;;;;;2.50;1.60;;;;;;;20.71;47.32;96897.88;5062505;28;20269;-68
2021/08/09 07:05:41;;;;;;;4.27;1.43;;;;;;;20.61;48.01;96886.94;5071056;28;20182;-70
2021/08/09 07:08:07;;;;;;;3.00;1.70;;;;;;;20.91;46.60;96906.66;5070920;28;20258;-68
2021/08/09 07:10:33;;;;;;;1.97;1.40;;;;;;;21.12;45.74;96897.34;5071045;28;20547;-68
2021/08/09 07:12:58;;;;;;;3.43;1.50;;;;;;;21.23;46.02;96901.91;5070150;28;20269;-69
2021/08/09 07:15:24;;;;;;;2.87;1.40;;;;;;;21.22;45.66;96897.59;5069520;28;20265;-68
2021/08/09 07:17:50;;;;;;;3.00;1.47;;;;;;;21.70;45.18;96897.69;5069617;28;20175;-69
2021/08/09 07:20:16;;;;;;;3.37;1.33;;;;;;;22.13;44.73;96901.88;5062333;28;20299;-68
2021/08/09 07:22:43;;;;;;;2.70;1.40;;;;;;;22.15;44.00;96905.13;5070807;28;20182;-68
2021/08/09 07:25:10;;;;;;;3.77;1.50;;;;;;;22.19;44.35;96898.25;5053605;28;20180;-70
2021/08/09 07:27:36;;;;;;;2.87;1.47;;;;;;;22.41;43.72;96897.69;5054667;28;21005;-69
2021/08/09 07:30:06;;;;;;;3.17;1.23;;;;;;;22.24;44.06;96895.72;5070690;28;20460;-69
2021/08/09 07:32:31;;;;;;;2.43;1.10;;;;;;;22.49;43.29;96891.97;5069383;28;20433;-69
2021/08/09 07:34:57;;;;;;;2.47;1.60;;;;;;;22.67;42.88;96900.88;5070959;28;20424;-69
2021/08/09 07:37:22;;;;;;;4.93;1.70;;;;;;;22.70;41.81;96890.50;5054426;28;20528;-70
2021/08/09 07:39:48;;;;;;;5.23;1.63;;;;;;;22.68;41.72;96891.81;5071013;28;20229;-68
2021/08/09 07:42:13;;;;;;;2.33;1.77;;;;;;;22.72;41.87;96890.25;5074792;28;20253;-70
2021/08/09 07:44:39;;;;;;;3.90;1.37;;;;;;;22.97;41.62;96899.78;5073415;28;20186;-69
2021/08/09 07:47:05;;;;;;;1.80;1.20;;;;;;;23.17;41.06;96894.00;5074955;28;20174;-69
2021/08/09 07:49:31;;;;;;;2.10;1.20;;;;;;;23.57;40.12;96897.63;5066828;28;20208;-69
2021/08/09 07:51:56;;;;;;;2.20;1.10;;;;;;;23.43;39.96;96900.63;5066168;28;20660;-69
2021/08/09 07:54:24;;;;;;;3.30;1.40;;;;;;;23.26;40.59;96902.47;5057695;28;20214;-69
2021/08/09 07:56:50;;;;;;;2.40;1.40;;;;;;;23.62;39.40;96905.72;5074422;28;20285;-68
2021/08/09 07:59:15;;;;;;;3.77;1.73;;;;;;;23.49;39.89;96900.69;5074314;28;20969;-67
2021/08/09 08:01:41;;;;;;;7.00;1.37;;;;;;;23.23;40.58;96902.94;5074513;28;20529;-68
2021/08/09 08:04:08;;;;;;;2.73;1.50;;;;;;;23.65;39.57;96907.91;5057545;28;20249;-68
2021/08/09 08:06:33;;;;;;;3.70;1.30;;;;;;;23.84;39.14;96915.69;5063384;28;20182;-69
2021/08/09 08:08:59;;;;;;;2.23;1.37;;;;;;;23.61;39.27;96912.13;5074559;28;20804;-69
2021/08/09 08:11:25;;;;;;;2.33;1.13;;;;;;;23.05;40.25;96917.31;5057692;28;20243;-68
2021/08/09 08:13:50;;;;;;;2.90;1.73;;;;;;;23.45;39.71;96909.19;5070791;28;20206;-68
2021/08/09 08:16:16;;;;;;;3.40;1.70;;;;;;;23.55;38.55;96910.44;5072275;28;20206;-68
2021/08/09 08:18:41;;;;;;;4.60;1.53;;;;;;;23.58;38.20;96915.28;5068862;28;20249;-68
2021/08/09 08:21:07;;;;;;;3.00;1.00;;;;;;;23.74;37.85;96908.31;5069530;28;20178;-67
2021/08/09 08:23:33;;;;;;;1.97;1.40;;;;;;;23.91;38.29;96905.63;5058621;28;20712;-69
2021/08/09 08:25:58;;;;;;;2.10;1.00;;;;;;;24.46;37.06;96897.78;5073817;28;20189;-68
2021/08/09 08:28:27;;;;;;;2.53;1.10;;;;;;;24.51;37.63;96892.50;5065386;28;20178;-68
2021/08/09 08:30:53;;;;;;;3.67;1.60;;;;;;;24.56;37.62;96897.94;5073333;28;20347;-68
2021/08/09 08:33:18;;;;;;;2.27;1.30;;;;;;;24.35;37.45;96903.03;5068957;28;20424;-68
2021/08/09 08:35:44;;;;;;;1.93;1.10;;;;;;;24.88;36.45;96894.56;5068877;28;20444;-69
2021/08/09 08:38:10;;;;;;;3.23;1.23;;;;;;;25.15;36.44;96901.78;5073384;28;20201;-70
2021/08/09 08:40:41;;;;;;;2.70;1.17;;;;;;;25.16;36.10;96895.38;5073736;28;20197;-69
2021/08/09 08:43:18;;;;;;;1.47;0.90;;;;;;;24.77;36.46;96896.31;5056463;28;20234;-69
2021/08/09 08:45:44;;;;;;;3.27;1.30;;;;;;;25.03;36.13;96907.28;5073730;28;20857;-68
2021/08/09 08:48:10;;;;;;;2.37;1.10;;;;;;;25.58;35.19;96900.03;5073273;28;20421;-70
2021/08/09 08:50:35;;;;;;;2.87;1.20;;;;;;;25.66;34.83;96906.00;5065596;28;20293;-71
2021/08/09 08:53:01;;;;;;;1.63;1.30;;;;;;;25.44;34.86;96906.91;5040452;28;20544;-70
2021/08/09 08:55:26;;;;;;;1.40;1.17;;;;;;;24.80;35.78;96903.06;5074205;28;20323;-69
2021/08/09 08:57:52;;;;;;;1.70;1.10;;;;;;;25.13;34.99;96901.22;5057224;28;20181;-70
2021/08/09 09:00:18;;;;;;;3.37;1.10;;;;;;;25.37;35.26;96903.59;5071641;28;20202;-69
2021/08/09 09:02:43;;;;;;;2.73;1.00;;;;;;;25.79;35.06;96902.88;5056928;28;20189;-70
2021/08/09 09:05:19;;;;;;;4.03;1.30;;;;;;;25.66;34.79;96908.69;5072719;28;20561;-70
2021/08/09 09:07:50;;;;;;;2.70;1.17;;;;;;;25.88;34.62;96905.88;5071465;28;20194;-70
2021/08/09 09:10:22;;;;;;;1.63;0.83;;;;;;;25.50;34.21;96900.50;5054559;28;20458;-70
2021/08/09 09:13:10;;;;;;;3.20;1.67;;;;;;;26.05;33.93;96897.66;5056879;28;20428;-70
2021/08/09 09:16:06;;;;;;;4.37;1.20;;;;;;;26.10;33.30;96902.25;5063513;28;20469;-69
2021/08/09 09:18:42;;;;;;;2.90;1.10;;;;;;;26.18;33.58;96905.28;5053525;28;20867;-70
2021/08/09 09:21:42;;;;;;;1.40;1.00;;;;;;;26.28;32.93;96896.47;5053517;28;20418;-70
2021/08/09 09:24:19;;;;;;;1.70;1.07;;;;;;;25.98;33.30;96897.91;5071749;28;20593;-69
2021/08/09 09:26:56;;;;;;;3.70;1.00;;;;;;;25.55;33.84;96913.16;5054780;28;20455;-70
2021/08/09 09:29:22;;;;;;;2.03;1.10;;;;;;;26.09;33.07;96906.00;5071428;28;20448;-69
2021/08/09 09:31:49;;;;;;;1.20;1.10;;;;;;;26.26;32.57;96905.84;5055946;28;20479;-69
2021/08/09 09:34:17;;;;;;;1.73;1.23;;;;;;;26.27;32.46;96910.16;5070527;28;20417;-68
2021/08/09 09:36:51;;;;;;;1.70;1.20;;;;;;;26.17;32.51;96913.59;5072149;28;20413;-70
2021/08/09 09:39:26;;;;;;;2.33;1.03;;;;;;;25.80;32.49;96919.78;5054496;28;20448;-68
2021/08/09 09:41:52;;;;;;;2.60;1.10;;;;;;;26.03;32.79;96916.69;5072573;28;20421;-68
2021/08/09 09:44:25;;;;;;;3.43;1.03;;;;;;;26.25;32.20;96910.44;5069921;28;20914;-68
2021/08/09 09:46:51;;;;;;;3.53;0.90;;;;;;;26.40;32.52;96908.88;5071122;28;20517;-70
2021/08/09 09:49:33;;;;;;;1.20;1.00;;;;;;;26.33;32.26;96917.19;5071915;28;20460;-69
2021/08/09 09:51:59;;;;;;;2.00;1.10;;;;;;;26.41;32.53;96919.34;5072459;28;20550;-69
2021/08/09 09:54:26;;;;;;;2.37;1.20;;;;;;;26.36;31.97;96917.47;5069759;28;20426;-70
2021/08/09 09:56:53;;;;;;;2.57;0.97;;;;;;;26.27;32.50;96923.59;5066086;28;20201;-68
2021/08/09 09:59:19;;;;;;;7.67;3.50;;;;;;;26.32;32.48;96926.31;5065129;28;20451;-70
2021/08/09 10:01:44;;;;;;;5.57;3.00;;;;;;;26.73;32.01;96920.28;5072492;28;20409;-69
2021/08/09 10:04:10;;;;;;;2.30;1.67;;;;;;;27.30;31.40;96915.88;5067652;28;20474;-70
2021/08/09 10:06:37;;;;;;;1.40;1.07;;;;;;;27.44;30.80;96914.28;5062072;28;20236;-70
2021/08/09 10:09:05;;;;;;;2.37;1.00;;;;;;;27.68;30.90;96913.75;5071788;28;20281;-68
2021/08/09 10:11:31;;;;;;;5.00;1.30;;;;;;;28.05;31.13;96911.78;5062560;28;20456;-69
2021/08/09 10:13:57;;;;;;;4.83;2.53;;;;;;;28.59;30.35;96910.31;5069633;28;20424;-70
2021/08/09 10:16:31;;;;;;;2.10;1.10;;;;;;;28.14;30.95;96918.28;5053386;28;20187;-70
2021/08/09 10:18:56;;;;;;;3.33;1.40;;;;;;;26.89;32.24;96918.47;5062357;28;20210;-69
2021/08/09 10:21:29;;;;;;;4.17;1.63;;;;;;;27.87;30.54;96914.00;5064051;28;20442;-68
2021/08/09 10:23:54;;;;;;;1.80;1.37;;;;;;;27.85;31.01;96920.75;5062543;28;20315;-69
2021/08/09 10:26:32;;;;;;;4.00;1.90;;;;;;;28.17;30.70;96919.63;5071589;28;20500;-69
2021/08/09 10:29:08;;;;;;;3.80;2.73;;;;;;;28.58;30.42;96927.56;5063566;28;20206;-68
2021/08/09 10:31:36;;;;;;;7.23;1.67;;;;;;;28.40;30.50;96920.09;5069760;28;20436;-69
2021/08/09 10:34:08;;;;;;;4.50;1.77;;;;;;;28.38;31.08;96914.16;5070892;28;20424;-71
2021/08/09 10:37:05;;;;;;;7.37;1.63;;;;;;;28.47;30.50;96917.91;5071270;28;20485;-70
2021/08/09 10:39:49;;;;;;;2.53;1.73;;;;;;;28.12;30.63;96914.22;5069627;28;20547;-69
2021/08/09 10:42:30;;;;;;;2.07;1.20;;;;;;;28.20;30.53;96905.63;5072920;28;20405;-69
2021/08/09 10:44:56;;;;;;;2.73;1.20;;;;;;;27.83;31.30;96904.03;5070042;28;20626;-68
2021/08/09 10:47:54;;;;;;;1.70;1.40;;;;;;;27.87;31.68;96903.22;5054913;28;22325;-68
2021/08/09 10:50:22;;;;;;;6.13;2.80;;;;;;;28.03;30.90;96909.38;5070571;28;21049;-67
2021/08/09 10:52:48;;;;;;;5.93;1.30;;;;;;;28.44;30.65;96902.28;5071283;28;20517;-68
2021/08/09 10:55:32;;;;;;;4.03;1.80;;;;;;;28.60;31.05;96900.34;5070565;28;20464;-68
2021/08/09 10:57:59;;;;;;;1.97;1.27;;;;;;;27.70;31.66;96900.84;5069428;28;20462;-70
2021/08/09 11:00:39;;;;;;;3.20;1.70;;;;;;;28.68;29.98;96902.44;5052824;28;20500;-69
2021/08/09 11:03:10;;;;;;;1.57;1.10;;;;;;;28.65;30.09;96890.34;5070745;28;20409;-68
2021/08/09 11:05:35;;;;;;;1.90;1.30;;;;;;;28.63;30.10;96889.81;5071017;28;20939;-67
2021/08/09 11:08:20;;;;;;;1.80;1.30;;;;;;;28.48;29.95;96885.28;5054584;28;20425;-68
2021/08/09 11:10:53;;;;;;;4.73;1.23;;;;;;;29.04;29.96;96896.06;5071177;28;20685;-68
2021/08/09 11:13:20;;;;;;;4.53;1.57;;;;;;;27.62;32.14;96904.03;5068497;28;20429;-70
2021/08/09 11:15:58;;;;;;;3.57;1.50;;;;;;;28.00;31.03;96899.16;5072785;28;20767;-69
2021/08/09 11:18:24;;;;;;;3.97;1.80;;;;;;;27.83;31.31;96898.66;5072261;28;20478;-67
2021/08/09 11:21:03;;;;;;;3.53;1.37;;;;;;;27.61;31.30;96890.88;5070091;28;20535;-68
2021/08/09 11:23:39;;;;;;;5.57;1.53;;;;;;;27.05;31.13;96889.72;5074442;28;20828;-70
2021/08/09 11:26:05;;;;;;;3.10;1.30;;;;;;;27.11;31.15;96900.22;5075479;28;20412;-67
2021/08/09 11:28:31;;;;;;;3.47;1.30;;;;;;;27.07;30.61;96901.03;5074884;28;20412;-67
2021/08/09 11:31:04;;;;;;;3.67;1.60;;;;;;;26.45;31.88;96909.72;5075090;28;20207;-70
2021/08/09 11:33:36;;;;;;;2.57;1.47;;;;;;;26.67;31.58;96912.19;5071412;28;20421;-69
2021/08/09 11:36:03;;;;;;;3.73;1.50;;;;;;;27.50;30.70;96904.34;5075129;28;20416;-70